createdAt,value
2018-02-15T00:01:54.634Z,63.34
2018-02-15T00:04:22.912Z,63.32
2018-02-15T00:06:51.176Z,62.68
2018-02-15T00:09:20.223Z,63.25
2018-02-15T00:11:48.484Z,62.55
2018-02-15T00:14:17.534Z,63.05
2018-02-15T00:16:45.805Z,62.55
2018-02-15T00:19:14.099Z,62.95
2018-02-15T00:21:42.413Z,62.54
2018-02-15T00:24:10.687Z,62.85
2018-02-15T00:26:39.225Z,63.45
2018-02-15T00:29:07.503Z,62.82
2018-02-15T00:31:35.778Z,62.80
2018-02-15T00:34:04.053Z,62.91
2018-02-15T00:36:32.339Z,63.10
2018-02-15T00:41:43.676Z,63.86
2018-02-15T00:44:11.997Z,63.33
2018-02-15T00:46:41.450Z,63.77
2018-02-15T00:49:09.728Z,63.71
2018-02-15T00:51:37.986Z,62.59
2018-02-15T00:54:06.268Z,62.79
2018-02-15T00:56:35.306Z,62.43
2018-02-15T00:59:04.339Z,62.99
2018-02-15T01:01:32.649Z,63.57
2018-02-15T01:04:00.998Z,63.67
2018-02-15T01:06:29.286Z,63.94
2018-02-15T01:08:58.327Z,64.10
2018-02-15T01:11:26.599Z,63.66
2018-02-15T01:13:54.876Z,63.77
2018-02-15T01:16:23.140Z,64.05
2018-02-15T01:18:51.419Z,63.38
2018-02-15T01:21:19.683Z,63.25
2018-02-15T01:23:47.950Z,62.77
2018-02-15T01:26:16.439Z,62.90
2018-02-15T01:28:44.735Z,62.87
2018-02-15T01:31:13.108Z,62.85
2018-02-15T01:33:42.207Z,62.57
2018-02-15T01:36:11.357Z,62.44
2018-02-15T01:38:39.628Z,62.13
2018-02-15T01:41:07.900Z,62.31
2018-02-15T01:43:36.918Z,61.49
2018-02-15T01:46:05.173Z,61.86
2018-02-15T01:48:33.450Z,62.26
2018-02-15T01:51:01.759Z,61.71
2018-02-15T01:53:29.998Z,62.40
2018-02-15T01:55:58.275Z,62.30
2018-02-15T01:58:26.539Z,61.56
2018-02-15T02:00:55.570Z,61.54
2018-02-15T02:03:23.852Z,61.03
2018-02-15T02:05:52.137Z,61.00
2018-02-15T02:08:20.401Z,61.00
2018-02-15T02:10:49.463Z,61.16
2018-02-15T02:13:17.730Z,60.90
2018-02-15T02:15:46.372Z,60.77
2018-02-15T02:18:14.651Z,60.73
2018-02-15T02:20:43.061Z,60.37
2018-02-15T02:23:13.015Z,59.73
2018-02-15T02:25:42.097Z,60.01
2018-02-15T02:28:10.379Z,60.13
2018-02-15T02:30:38.731Z,59.24
2018-02-15T02:33:07.048Z,58.70
2018-02-15T02:35:35.325Z,58.73
2018-02-15T02:38:03.585Z,58.61
2018-02-15T02:40:31.948Z,58.88
2018-02-15T02:43:01.003Z,59.12
2018-02-15T02:45:29.296Z,58.83
2018-02-15T02:47:57.580Z,57.80
2018-02-15T02:50:25.843Z,57.75
2018-02-15T02:52:54.124Z,58.32
2018-02-15T02:55:22.408Z,58.63
2018-02-15T02:57:51.440Z,58.23
2018-02-15T03:00:19.708Z,57.77
2018-02-15T03:02:47.982Z,57.84
2018-02-15T03:05:16.337Z,58.29
2018-02-15T03:07:44.774Z,58.01
2018-02-15T03:10:13.838Z,57.19
2018-02-15T03:12:42.339Z,57.53
2018-02-15T03:15:10.637Z,57.07
2018-02-15T03:17:38.939Z,57.62
2018-02-15T03:20:07.213Z,57.19
2018-02-15T03:22:35.512Z,57.58
2018-02-15T03:25:03.768Z,57.14
2018-02-15T03:27:32.093Z,57.68
2018-02-15T03:30:00.361Z,56.97
2018-02-15T03:32:28.629Z,56.68
2018-02-15T03:34:56.905Z,56.84
2018-02-15T03:37:25.177Z,56.52
2018-02-15T03:39:54.198Z,56.41
2018-02-15T03:42:23.223Z,56.53
2018-02-15T03:44:51.486Z,56.53
2018-02-15T03:47:20.521Z,56.11
2018-02-15T03:49:48.775Z,56.80
2018-02-15T03:52:17.846Z,56.30
2018-02-15T03:54:46.130Z,56.61
2018-02-15T03:57:15.223Z,56.78
2018-02-15T03:59:43.623Z,56.98
2018-02-15T04:02:12.206Z,57.01
2018-02-15T04:04:41.387Z,57.27
2018-02-15T04:07:10.484Z,57.09
2018-02-15T04:09:39.504Z,56.91
2018-02-15T04:12:08.588Z,57.30
2018-02-15T04:14:36.904Z,57.58
2018-02-15T04:17:05.937Z,58.12
2018-02-15T04:19:34.214Z,57.66
2018-02-15T04:22:02.528Z,57.92
2018-02-15T04:24:30.876Z,57.95
2018-02-15T04:26:59.897Z,57.42
2018-02-15T04:29:28.175Z,57.42
2018-02-15T04:31:57.208Z,58.10
2018-02-15T04:34:25.479Z,57.17
2018-02-15T04:36:53.739Z,57.08
2018-02-15T04:39:22.791Z,57.67
2018-02-15T04:41:51.073Z,57.49
2018-02-15T04:44:19.338Z,56.56
2018-02-15T04:46:48.340Z,56.54
2018-02-15T04:49:17.389Z,57.03
2018-02-15T04:51:45.928Z,57.61
2018-02-15T04:54:14.228Z,57.50
2018-02-15T04:56:43.378Z,57.69
2018-02-15T04:59:11.781Z,57.36
2018-02-15T05:01:40.137Z,57.21
2018-02-15T05:04:09.215Z,57.65
2018-02-15T05:06:38.293Z,57.69
2018-02-15T05:09:06.584Z,57.56
2018-02-15T05:11:34.849Z,57.84
2018-02-15T05:14:03.143Z,56.86
2018-02-15T05:16:31.404Z,57.02
2018-02-15T05:18:59.697Z,56.87
2018-02-15T05:21:28.714Z,55.64
2018-02-15T05:23:56.985Z,55.98
2018-02-15T05:26:25.999Z,56.54
2018-02-15T05:28:55.043Z,55.99
2018-02-15T05:31:23.306Z,57.04
2018-02-15T05:33:51.565Z,56.23
2018-02-15T05:36:19.828Z,56.51
2018-02-15T05:38:48.080Z,56.32
2018-02-15T05:41:16.397Z,56.87
2018-02-15T05:43:44.684Z,56.58
2018-02-15T05:46:12.996Z,56.50
2018-02-15T05:48:41.297Z,56.41
2018-02-15T05:51:09.587Z,56.76
2018-02-15T05:53:37.831Z,56.81
2018-02-15T05:56:06.100Z,56.92
2018-02-15T05:58:34.348Z,56.66
2018-02-15T06:01:02.623Z,55.39
2018-02-15T06:03:30.900Z,55.19
2018-02-15T06:05:59.173Z,55.07
2018-02-15T06:08:27.445Z,54.42
2018-02-15T06:10:55.724Z,55.33
2018-02-15T06:13:23.980Z,54.95
2018-02-15T06:15:52.267Z,54.97
2018-02-15T06:18:20.538Z,55.04
2018-02-15T06:20:49.597Z,55.13
2018-02-15T06:23:17.851Z,54.65
2018-02-15T06:25:46.151Z,54.75
2018-02-15T06:28:15.254Z,55.02
2018-02-15T06:30:44.344Z,55.17
2018-02-15T06:33:12.823Z,55.92
2018-02-15T06:35:42.138Z,55.06
2018-02-15T06:38:10.482Z,55.79
2018-02-15T06:40:39.512Z,54.83
2018-02-15T06:43:07.789Z,56.17
2018-02-15T06:45:36.110Z,55.69
2018-02-15T06:48:04.350Z,56.00
2018-02-15T06:50:33.379Z,54.69
2018-02-15T06:53:02.309Z,56.27
2018-02-15T06:55:30.601Z,55.62
2018-02-15T06:57:58.880Z,55.37
2018-02-15T07:00:27.152Z,55.17
2018-02-15T07:02:55.411Z,55.07
2018-02-15T07:05:24.449Z,54.46
2018-02-15T07:07:52.748Z,55.17
2018-02-15T07:10:21.013Z,54.80
2018-02-15T07:12:50.447Z,54.95
2018-02-15T07:15:18.772Z,55.18
2018-02-15T07:17:47.080Z,54.71
2018-02-15T07:20:15.576Z,54.20
2018-02-15T07:22:43.870Z,54.79
2018-02-15T07:25:12.203Z,54.78
2018-02-15T07:27:42.150Z,54.58
2018-02-15T07:30:11.221Z,54.91
2018-02-15T07:32:39.488Z,54.62
2018-02-15T07:35:07.744Z,55.68
2018-02-15T07:37:36.784Z,55.01
2018-02-15T07:40:05.036Z,55.25
2018-02-15T07:42:33.311Z,55.13
2018-02-15T07:45:01.551Z,63.01
2018-02-15T07:47:30.619Z,54.25
2018-02-15T07:49:58.959Z,54.74
2018-02-15T07:52:28.014Z,54.81
2018-02-15T07:54:56.268Z,55.77
2018-02-15T07:57:24.540Z,55.64
2018-02-15T07:59:53.561Z,56.27
2018-02-15T08:02:22.592Z,58.59
2018-02-15T08:04:50.873Z,60.04
2018-02-15T08:07:19.140Z,61.29
2018-02-15T08:09:48.155Z,63.21
2018-02-15T08:12:16.437Z,64.13
2018-02-15T08:14:44.883Z,63.34
2018-02-15T08:17:13.511Z,66.50
2018-02-15T08:19:42.766Z,68.31
2018-02-15T08:22:11.290Z,70.75
2018-02-15T08:24:39.557Z,72.41
2018-02-15T08:27:07.992Z,74.49
2018-02-15T08:29:36.853Z,73.99
2018-02-15T08:32:05.127Z,76.97
2018-02-15T08:34:33.519Z,79.57
2018-02-15T08:37:02.617Z,81.13
2018-02-15T08:39:30.978Z,81.63
2018-02-15T08:42:00.120Z,81.78
2018-02-15T08:44:28.698Z,82.76
2018-02-15T08:46:58.155Z,83.62
2018-02-15T08:49:26.833Z,83.65
2018-02-15T08:51:55.224Z,84.10
2018-02-15T08:54:23.497Z,84.23
2018-02-15T08:56:53.300Z,83.65
2018-02-15T08:59:21.701Z,84.54
2018-02-15T09:01:49.988Z,84.69
2018-02-15T09:04:19.155Z,84.87
2018-02-15T09:06:47.535Z,85.27
2018-02-15T09:09:16.082Z,84.79
2018-02-15T09:11:44.817Z,85.12
2018-02-15T09:14:13.912Z,84.95
2018-02-15T09:16:43.136Z,84.92
2018-02-15T09:19:11.528Z,84.18
2018-02-15T09:21:39.803Z,84.09
2018-02-15T09:24:08.987Z,84.64
2018-02-15T09:26:37.564Z,82.79
2018-02-15T09:29:05.907Z,84.12
2018-02-15T09:31:34.399Z,83.82
2018-02-15T09:34:02.703Z,84.03
2018-02-15T09:36:31.128Z,83.89
2018-02-15T09:38:59.539Z,83.91
2018-02-15T09:41:28.647Z,82.21
2018-02-15T09:43:56.943Z,83.64
2018-02-15T09:46:25.349Z,83.29
2018-02-15T09:48:54.474Z,83.70
2018-02-15T09:51:23.923Z,82.52
2018-02-15T09:53:53.811Z,82.57
2018-02-15T09:56:22.935Z,83.54
2018-02-15T09:58:51.379Z,82.79
2018-02-15T10:01:19.774Z,82.50
2018-02-15T10:03:48.379Z,82.46
2018-02-15T10:06:16.899Z,81.05
2018-02-15T10:08:46.100Z,80.83
2018-02-15T10:11:15.739Z,81.33
2018-02-15T10:13:44.129Z,81.46
2018-02-15T10:16:12.668Z,82.72
2018-02-15T10:18:41.060Z,82.86
2018-02-15T10:21:09.943Z,83.81
2018-02-15T10:23:38.205Z,84.53
2018-02-15T10:26:06.527Z,84.22
2018-02-15T10:28:34.789Z,82.59
2018-02-15T10:31:03.174Z,83.29
2018-02-15T10:33:32.315Z,84.58
2018-02-15T10:36:00.692Z,84.50
2018-02-15T10:38:29.224Z,84.70
2018-02-15T10:40:57.762Z,81.52
2018-02-15T10:43:26.878Z,81.97
2018-02-15T10:45:55.920Z,80.21
2018-02-15T10:48:24.239Z,82.58
2018-02-15T10:50:52.816Z,82.83
2018-02-15T10:53:21.162Z,81.46
2018-02-15T10:55:50.293Z,83.14
2018-02-15T10:58:18.574Z,83.39
2018-02-15T11:00:52.480Z,83.29
2018-02-15T11:03:26.968Z,83.52
2018-02-15T11:06:00.656Z,85.02
2018-02-15T11:08:29.067Z,85.18
2018-02-15T11:10:57.960Z,84.23
2018-02-15T11:13:26.321Z,83.10
2018-02-15T11:15:57.265Z,83.09
2018-02-15T11:18:26.298Z,85.31
2018-02-15T11:20:54.600Z,83.67
2018-02-15T11:23:23.611Z,84.24
2018-02-15T11:25:51.918Z,86.44
2018-02-15T11:28:20.337Z,85.00
2018-02-15T11:30:48.799Z,86.85
2018-02-15T11:33:17.074Z,87.06
2018-02-15T11:35:45.716Z,87.00
2018-02-15T11:38:13.983Z,87.26
2018-02-15T11:40:42.451Z,86.31
2018-02-15T11:43:10.797Z,86.19
2018-02-15T11:45:39.915Z,87.17
2018-02-15T11:48:08.596Z,86.27
2018-02-15T11:50:37.842Z,87.04
2018-02-15T11:53:06.191Z,86.65
2018-02-15T11:55:34.878Z,87.66
2018-02-15T11:58:03.475Z,86.63
2018-02-15T12:00:33.461Z,87.64
2018-02-15T12:03:02.070Z,88.30
2018-02-15T12:05:31.128Z,89.17
2018-02-15T12:07:59.715Z,88.30
2018-02-15T12:10:28.196Z,88.86
2018-02-15T12:12:56.681Z,90.59
2018-02-15T12:15:25.743Z,88.23
2018-02-15T12:17:54.024Z,88.48
2018-02-15T12:20:23.168Z,88.92
2018-02-15T12:22:51.583Z,89.73
2018-02-15T12:25:19.903Z,89.30
2018-02-15T12:27:49.207Z,89.28
2018-02-15T12:30:17.595Z,89.36
2018-02-15T12:32:46.075Z,90.18
2018-02-15T12:35:14.572Z,89.80
2018-02-15T12:37:43.031Z,88.67
2018-02-15T12:40:11.525Z,88.63
2018-02-15T12:42:39.926Z,86.81
2018-02-15T12:45:09.197Z,87.45
2018-02-15T12:47:38.447Z,87.41
2018-02-15T12:50:07.003Z,88.08
2018-02-15T12:52:36.300Z,88.00
2018-02-15T12:55:05.725Z,87.92
2018-02-15T12:57:34.778Z,90.18
2018-02-15T13:00:03.242Z,88.71
2018-02-15T13:02:31.760Z,88.38
2018-02-15T13:05:00.359Z,89.14
2018-02-15T13:07:28.663Z,89.66
2018-02-15T13:09:57.010Z,90.42
2018-02-15T13:12:43.063Z,88.48
2018-02-15T13:15:29.190Z,89.24
2018-02-15T13:17:57.768Z,87.67
2018-02-15T13:20:26.147Z,90.23
2018-02-15T13:22:54.551Z,90.26
2018-02-15T13:25:23.590Z,89.13
2018-02-15T13:28:09.794Z,89.45
2018-02-15T13:30:38.292Z,89.52
2018-02-15T13:33:06.843Z,89.37
2018-02-15T13:35:35.305Z,90.06
2018-02-15T13:38:03.699Z,90.23
2018-02-15T13:40:32.854Z,90.50
2018-02-15T13:43:01.307Z,90.66
2018-02-15T13:45:29.612Z,91.33
2018-02-15T13:47:58.051Z,91.47
2018-02-15T13:50:26.436Z,90.61
2018-02-15T13:52:55.372Z,90.47
2018-02-15T13:55:24.717Z,90.48
2018-02-15T13:57:53.254Z,90.45
2018-02-15T14:00:21.866Z,89.73
2018-02-15T14:02:50.655Z,90.90
2018-02-15T14:05:19.066Z,90.85
2018-02-15T14:07:47.962Z,89.66
2018-02-15T14:10:16.582Z,92.03
2018-02-15T14:12:46.060Z,86.80
2018-02-15T14:15:15.702Z,87.98
2018-02-15T14:17:44.307Z,87.94
2018-02-15T14:20:14.148Z,89.79
2018-02-15T14:22:43.365Z,89.99
2018-02-15T14:25:12.669Z,90.09
2018-02-15T14:27:41.956Z,90.39
2018-02-15T14:30:10.684Z,90.20
2018-02-15T14:32:39.972Z,89.48
2018-02-15T14:35:09.487Z,89.16
2018-02-15T14:37:44.224Z,88.61
2018-02-15T14:40:12.917Z,88.47
2018-02-15T14:42:41.990Z,88.74
2018-02-15T14:45:10.709Z,89.04
2018-02-15T14:47:39.736Z,88.65
2018-02-15T14:50:08.612Z,88.96
2018-02-15T14:52:37.120Z,90.10
2018-02-15T14:55:05.652Z,91.05
2018-02-15T14:57:35.450Z,89.53
2018-02-15T15:00:04.323Z,89.85
2018-02-15T15:02:33.104Z,90.53
2018-02-15T15:05:01.916Z,91.24
2018-02-15T15:07:30.848Z,91.67
2018-02-15T15:09:59.702Z,92.12
2018-02-15T15:12:28.505Z,91.79
2018-02-15T15:14:58.154Z,90.98
2018-02-15T15:17:27.010Z,91.40
2018-02-15T15:19:56.148Z,92.04
2018-02-15T15:22:24.795Z,93.47
2018-02-15T15:24:53.115Z,92.97
2018-02-15T15:27:22.456Z,93.89
2018-02-15T15:29:51.095Z,94.08
2018-02-15T15:32:20.600Z,94.92
2018-02-15T15:34:50.122Z,95.43
2018-02-15T15:37:19.513Z,95.04
2018-02-15T15:39:48.820Z,95.40
2018-02-15T15:42:17.878Z,95.54
2018-02-15T15:44:47.354Z,95.40
2018-02-15T15:47:17.900Z,95.44
2018-02-15T15:49:46.563Z,95.35
2018-02-15T15:52:16.332Z,95.58
2018-02-15T15:54:45.302Z,95.86
2018-02-15T15:57:13.993Z,95.70
2018-02-15T15:59:43.482Z,95.81
2018-02-15T16:02:12.331Z,95.83
2018-02-15T16:04:41.993Z,96.36
2018-02-15T16:07:10.812Z,96.12
2018-02-15T16:09:39.169Z,96.10
2018-02-15T16:12:07.495Z,96.02
2018-02-15T16:14:35.868Z,96.11
2018-02-15T16:17:04.653Z,96.26
2018-02-15T16:19:33.314Z,96.10
2018-02-15T16:22:01.821Z,95.91
2018-02-15T16:24:30.232Z,95.84
2018-02-15T16:26:59.364Z,96.13
2018-02-15T16:29:27.705Z,95.88
2018-02-15T16:31:56.809Z,96.29
2018-02-15T16:34:25.659Z,95.97
2018-02-15T16:36:54.074Z,95.94
2018-02-15T16:39:22.370Z,95.48
2018-02-15T16:41:50.777Z,95.53
2018-02-15T16:44:19.956Z,95.83
2018-02-15T16:46:49.349Z,95.41
2018-02-15T16:49:18.931Z,95.21
2018-02-15T16:51:48.680Z,95.81
2018-02-15T16:54:18.372Z,95.90
2018-02-15T16:56:47.805Z,96.37
2018-02-15T16:59:17.432Z,96.33
2018-02-15T17:01:47.118Z,96.39
2018-02-15T17:04:16.520Z,96.49
2018-02-15T17:06:45.562Z,97.03
2018-02-15T17:09:16.241Z,97.44
2018-02-15T17:11:45.219Z,96.96
2018-02-15T17:14:15.988Z,96.47
2018-02-15T17:16:44.373Z,96.26
2018-02-15T17:19:12.826Z,95.14
2018-02-15T17:21:41.177Z,94.87
2018-02-15T17:24:09.449Z,94.92
2018-02-15T17:26:37.704Z,95.48
2018-02-15T17:29:06.815Z,96.34
2018-02-15T17:31:35.173Z,96.73
2018-02-15T17:34:03.630Z,96.28
2018-02-15T17:36:31.900Z,96.45
2018-02-15T17:39:00.297Z,96.24
2018-02-15T17:41:28.661Z,96.35
2018-02-15T17:43:57.045Z,96.58
2018-02-15T17:46:25.372Z,97.05
2018-02-15T17:48:53.664Z,97.37
2018-02-15T17:51:22.014Z,97.40
2018-02-15T17:53:50.345Z,97.29
2018-02-15T17:56:19.425Z,97.51
2018-02-15T17:58:48.477Z,97.48
2018-02-15T18:01:16.829Z,97.99
2018-02-15T18:03:46.067Z,97.99
2018-02-15T18:06:14.561Z,98.45
2018-02-15T18:08:43.003Z,98.07
2018-02-15T18:11:11.426Z,97.44
2018-02-15T18:13:41.370Z,97.28
2018-02-15T18:16:09.792Z,97.54
2018-02-15T18:18:38.092Z,96.65
2018-02-15T18:21:06.431Z,95.77
2018-02-15T18:23:36.046Z,96.11
2018-02-15T18:26:05.162Z,96.62
2018-02-15T18:28:34.217Z,95.26
2018-02-15T18:31:02.590Z,95.15
2018-02-15T18:33:30.941Z,94.66
2018-02-15T18:36:00.032Z,95.43
2018-02-15T18:38:28.435Z,95.83
2018-02-15T18:40:57.778Z,95.24
2018-02-15T18:43:26.899Z,96.74
2018-02-15T18:45:55.305Z,97.15
2018-02-15T18:48:23.561Z,97.63
2018-02-15T18:50:51.965Z,98.18
2018-02-15T18:53:20.239Z,97.95
2018-02-15T18:55:49.476Z,98.25
2018-02-15T18:58:17.984Z,98.26
2018-02-15T19:00:46.415Z,98.71
2018-02-15T19:03:14.830Z,98.49
2018-02-15T19:05:43.838Z,98.63
2018-02-15T19:08:12.975Z,98.91
2018-02-15T19:10:42.521Z,99.15
2018-02-15T19:13:11.050Z,99.19
2018-02-15T19:15:40.349Z,98.83
2018-02-15T19:18:10.349Z,98.61
2018-02-15T19:20:38.795Z,98.87
2018-02-15T19:23:07.195Z,99.02
2018-02-15T19:25:37.012Z,99.56
2018-02-15T19:28:06.052Z,99.72
2018-02-15T19:30:34.589Z,100.00
2018-02-15T19:33:03.032Z,100.00
2018-02-15T19:35:31.389Z,99.78
2018-02-15T19:37:59.705Z,98.19
2018-02-15T19:40:28.024Z,99.38
2018-02-15T19:42:57.120Z,99.62
2018-02-15T19:45:25.428Z,99.86
2018-02-15T19:47:53.775Z,100.00
2018-02-15T19:50:22.090Z,100.00
2018-02-15T19:52:50.354Z,100.00
2018-02-15T19:55:18.657Z,100.00
2018-02-15T19:57:46.985Z,100.00
2018-02-15T20:00:15.459Z,100.00
2018-02-15T20:02:43.889Z,100.00
2018-02-15T20:05:12.353Z,100.00
2018-02-15T20:07:40.696Z,100.00
2018-02-15T20:10:09.011Z,100.00
2018-02-15T20:12:37.316Z,100.00
2018-02-15T20:15:05.712Z,100.00
2018-02-15T20:17:33.989Z,100.00
2018-02-15T20:20:08.075Z,100.00
2018-02-15T20:22:37.266Z,100.00
2018-02-15T20:25:07.285Z,100.00
2018-02-15T20:27:41.125Z,100.00
2018-02-15T20:30:09.448Z,100.00
2018-02-15T20:32:37.874Z,100.00
2018-02-15T20:35:06.327Z,100.00
2018-02-15T20:37:40.077Z,100.00
2018-02-15T20:40:13.885Z,100.00
2018-02-15T20:42:42.386Z,100.00
2018-02-15T20:45:10.794Z,100.00
2018-02-15T20:47:39.111Z,100.00
2018-02-15T20:50:12.977Z,100.00
2018-02-15T20:52:46.912Z,100.00
2018-02-15T20:55:20.656Z,100.00
2018-02-15T20:57:49.049Z,100.00
2018-02-15T21:00:18.251Z,100.00
2018-02-15T21:02:46.626Z,100.00
2018-02-15T21:05:15.700Z,100.00
2018-02-15T21:07:44.911Z,100.00
2018-02-15T21:10:14.063Z,100.00
2018-02-15T21:12:42.582Z,100.00
2018-02-15T21:15:10.883Z,100.00
2018-02-15T21:17:40.082Z,100.00
2018-02-15T21:20:08.502Z,100.00
2018-02-15T21:22:37.675Z,100.00
2018-02-15T21:25:06.006Z,100.00
2018-02-15T21:27:35.132Z,100.00
2018-02-15T21:30:03.660Z,100.00
2018-02-15T21:32:32.006Z,100.00
2018-02-15T21:35:00.292Z,100.00
2018-02-15T21:37:29.884Z,100.00
2018-02-15T21:39:58.211Z,100.00
2018-02-15T21:42:26.581Z,100.00
2018-02-15T21:44:55.819Z,100.00
2018-02-15T21:47:24.132Z,100.00
2018-02-15T21:49:52.543Z,100.00
2018-02-15T21:52:22.290Z,100.00
2018-02-15T21:54:50.588Z,100.00
2018-02-15T21:57:18.940Z,100.00
2018-02-15T21:59:47.243Z,100.00
2018-02-15T22:02:15.659Z,100.00
2018-02-15T22:04:45.044Z,100.00
2018-02-15T22:07:13.731Z,100.00
2018-02-15T22:09:42.190Z,100.00
2018-02-15T22:12:10.534Z,100.00
2018-02-15T22:14:38.892Z,100.00
2018-02-15T22:17:07.221Z,100.00
2018-02-15T22:19:35.516Z,100.00
2018-02-15T22:22:03.830Z,100.00
2018-02-15T22:24:33.256Z,100.00
2018-02-15T22:27:01.563Z,100.00
2018-02-15T22:29:29.921Z,100.00
2018-02-15T22:31:58.238Z,100.00
2018-02-15T22:34:26.533Z,100.00
2018-02-15T22:36:54.834Z,100.00
2018-02-15T22:39:23.217Z,100.00
2018-02-15T22:41:51.553Z,100.00
2018-02-15T22:44:20.296Z,100.00
2018-02-15T22:46:48.600Z,100.00
2018-02-15T22:49:17.004Z,100.00
2018-02-15T22:51:47.468Z,100.00
2018-02-15T22:54:16.853Z,100.00
2018-02-15T22:56:45.170Z,100.00
2018-02-15T22:59:13.767Z,100.00
2018-02-15T23:01:42.257Z,100.00
2018-02-15T23:04:10.765Z,100.00
2018-02-15T23:06:39.092Z,100.00
2018-02-15T23:09:08.153Z,100.00
2018-02-15T23:11:36.470Z,100.00
2018-02-15T23:14:04.834Z,100.00
2018-02-15T23:16:33.110Z,100.00
2018-02-15T23:19:01.553Z,100.00
2018-02-15T23:21:30.688Z,100.00
2018-02-15T23:23:59.064Z,100.00
2018-02-15T23:26:27.462Z,100.00
2018-02-15T23:28:56.989Z,100.00
2018-02-15T23:31:25.438Z,100.00
2018-02-15T23:33:53.774Z,100.00
2018-02-15T23:36:22.035Z,100.00
2018-02-15T23:38:51.080Z,100.00
2018-02-15T23:41:19.345Z,100.00
2018-02-15T23:43:48.400Z,100.00
2018-02-15T23:46:16.708Z,100.00
2018-02-15T23:48:45.056Z,100.00
2018-02-15T23:51:13.420Z,100.00
2018-02-15T23:53:41.803Z,100.00
2018-02-15T23:56:11.694Z,100.00
2018-02-15T23:58:39.985Z,100.00
